Time;durP1;ratioP1;P1;durP2;ratioP2;P2;SDS_P1;SDS_P2;PMS_P1;PMS_P2;Temp;Humidity;BMP_temperature;BMP_pressure;BME280_temperature;BME280_humidity;BME280_pressure;Samples;Min_cycle;Max_cycle;Signal;HPM_P1;HPM_P2
2021/11/10 00:01:37;;;;;;;8.17;7.23;;;4.60;81.50;;;;;;4884956;29;20462;-43
2021/11/10 00:04:05;;;;;;;12.10;6.63;;;4.60;81.50;;;;;;4885101;29;20483;-44
2021/11/10 00:06:32;;;;;;;7.80;6.30;;;4.60;81.50;;;;;;4899957;29;20508;-44
2021/11/10 00:08:59;;;;;;;9.63;6.13;;;4.50;81.50;;;;;;4901035;29;20534;-44
2021/11/10 00:11:25;;;;;;;11.03;7.07;;;4.50;81.50;;;;;;4889526;29;21011;-43
2021/11/10 00:13:52;;;;;;;10.20;7.10;;;4.50;81.70;;;;;;4903252;29;20465;-43
2021/11/10 00:16:19;;;;;;;11.73;6.23;;;4.50;81.80;;;;;;4901489;29;20496;-44
2021/11/10 00:18:47;;;;;;;8.53;6.27;;;4.40;81.90;;;;;;4901445;29;20489;-44
2021/11/10 00:21:14;;;;;;;12.37;6.73;;;4.40;81.90;;;;;;4897360;29;20470;-44
2021/11/10 00:23:40;;;;;;;9.13;6.13;;;4.40;82.00;;;;;;4897129;29;21159;-44
2021/11/10 00:26:07;;;;;;;10.27;7.00;;;4.40;82.00;;;;;;4898340;29;20473;-44
2021/11/10 00:28:34;;;;;;;11.10;6.50;;;4.40;81.90;;;;;;4900372;29;20460;-44
2021/11/10 00:31:01;;;;;;;6.37;5.20;;;4.40;81.90;;;;;;4901086;29;20458;-43
2021/11/10 00:33:27;;;;;;;10.73;6.60;;;4.40;82.00;;;;;;4886937;29;20470;-43
2021/11/10 00:35:54;;;;;;;10.80;6.43;;;4.30;82.00;;;;;;4901269;29;20877;-44
2021/11/10 00:38:21;;;;;;;9.73;5.53;;;4.30;82.00;;;;;;4903549;29;20448;-43
2021/11/10 00:40:48;;;;;;;11.67;6.20;;;4.30;82.10;;;;;;4900099;29;20479;-43
2021/11/10 00:43:15;;;;;;;11.33;5.70;;;4.30;82.10;;;;;;4902387;29;20453;-43
2021/11/10 00:45:41;;;;;;;6.93;5.23;;;4.30;82.10;;;;;;4900993;29;21003;-44
2021/11/10 00:48:10;;;;;;;7.57;5.50;;;4.30;82.10;;;;;;4898775;29;20457;-43
2021/11/10 00:50:38;;;;;;;10.20;7.10;;;4.30;82.10;;;;;;4913835;29;20872;-44
2021/11/10 00:53:06;;;;;;;9.43;5.57;;;4.20;82.10;;;;;;4900889;29;20526;-43
2021/11/10 00:55:34;;;;;;;7.10;5.30;;;4.20;82.30;;;;;;4884285;29;20763;-43
2021/11/10 00:58:02;;;;;;;6.20;4.80;;;4.20;82.30;;;;;;4902267;29;21421;-43
2021/11/10 01:00:30;;;;;;;7.27;5.77;;;4.20;82.40;;;;;;4882666;29;20461;-44
2021/11/10 01:02:57;;;;;;;7.93;5.37;;;4.20;82.50;;;;;;4883476;29;20453;-43
2021/11/10 01:05:24;;;;;;;10.33;6.33;;;4.20;82.40;;;;;;4899241;29;20454;-43
2021/11/10 01:07:51;;;;;;;8.13;5.70;;;4.20;82.40;;;;;;4879385;29;20466;-43
2021/11/10 01:10:17;;;;;;;11.50;6.13;;;4.20;82.50;;;;;;4899971;29;20819;-44
2021/11/10 01:12:44;;;;;;;8.67;6.40;;;4.20;82.50;;;;;;4897406;29;20454;-43
2021/11/10 01:15:11;;;;;;;9.70;6.47;;;4.20;82.60;;;;;;4899757;29;20464;-43
2021/11/10 01:17:38;;;;;;;9.23;5.50;;;4.10;82.60;;;;;;4899842;29;20503;-43
2021/11/10 01:20:07;;;;;;;10.30;5.60;;;4.20;82.70;;;;;;4884464;29;20518;-43
2021/11/10 01:22:34;;;;;;;6.57;5.90;;;4.20;82.80;;;;;;4898942;29;20473;-43
2021/11/10 01:25:02;;;;;;;7.30;5.40;;;4.20;82.80;;;;;;4882891;29;20458;-43
2021/11/10 01:27:29;;;;;;;10.03;6.30;;;4.20;82.90;;;;;;4897731;29;20540;-43
2021/11/10 01:29:56;;;;;;;10.47;5.20;;;4.20;83.00;;;;;;4898243;29;20462;-43
2021/11/10 01:32:23;;;;;;;7.10;5.37;;;4.20;83.10;;;;;;4899709;29;20462;-43
2021/11/10 01:34:50;;;;;;;7.33;5.77;;;4.20;83.10;;;;;;4901093;29;20458;-43
2021/11/10 01:37:17;;;;;;;8.40;5.10;;;4.20;83.10;;;;;;4900216;29;20498;-43
2021/11/10 01:39:43;;;;;;;10.93;6.53;;;4.10;83.20;;;;;;4899820;29;20489;-43
2021/11/10 01:42:10;;;;;;;8.17;5.73;;;4.10;83.30;;;;;;4886100;29;20989;-43
2021/11/10 01:44:39;;;;;;;8.50;6.27;;;4.20;83.30;;;;;;4899152;29;20458;-43
2021/11/10 01:47:09;;;;;;;8.53;5.27;;;4.20;83.30;;;;;;4883802;29;21242;-44
2021/11/10 01:49:37;;;;;;;7.50;5.53;;;4.20;83.50;;;;;;4883242;29;20548;-44
2021/11/10 01:52:05;;;;;;;7.53;5.73;;;4.20;83.20;;;;;;4898052;29;20462;-44
2021/11/10 01:54:35;;;;;;;6.10;5.50;;;4.20;83.30;;;;;;4885218;29;20634;-44
2021/11/10 01:57:05;;;;;;;7.30;5.50;;;4.10;83.30;;;;;;4882502;29;20498;-44
2021/11/10 01:59:42;;;;;;;6.60;5.20;;;4.10;83.50;;;;;;4899436;29;20461;-44
2021/11/10 02:02:13;;;;;;;6.20;5.50;;;4.10;83.30;;;;;;4883224;29;22058;-44
2021/11/10 02:04:40;;;;;;;5.37;4.87;;;4.10;83.20;;;;;;4900756;29;21167;-44
2021/11/10 02:07:07;;;;;;;7.47;6.30;;;4.10;83.30;;;;;;4898756;29;20481;-43
2021/11/10 02:09:34;;;;;;;7.30;5.73;;;4.10;83.30;;;;;;4899880;29;21160;-43
2021/11/10 02:12:01;;;;;;;8.93;5.53;;;4.10;83.20;;;;;;4898618;29;20473;-43
2021/11/10 02:14:28;;;;;;;7.23;5.40;;;4.10;83.20;;;;;;4895113;29;20479;-43
2021/11/10 02:16:56;;;;;;;9.87;6.10;;;4.10;83.20;;;;;;4897212;29;20519;-43
2021/11/10 02:19:26;;;;;;;6.13;5.43;;;4.00;83.30;;;;;;4899079;29;20465;-43
2021/11/10 02:21:56;;;;;;;7.63;6.07;;;4.00;83.30;;;;;;4899384;29;20472;-43
2021/11/10 02:24:26;;;;;;;6.80;6.10;;;4.00;83.30;;;;;;4899646;29;20485;-43
2021/11/10 02:26:53;;;;;;;7.50;5.57;;;4.00;83.20;;;;;;4899401;29;20468;-43
2021/11/10 02:29:23;;;;;;;7.60;5.83;;;4.00;83.00;;;;;;4897801;29;20457;-43
2021/11/10 02:31:52;;;;;;;7.57;5.80;;;4.00;83.10;;;;;;4898776;29;21000;-43
2021/11/10 02:34:19;;;;;;;7.43;5.07;;;4.00;83.10;;;;;;4899921;29;20537;-43
2021/11/10 02:36:46;;;;;;;13.83;5.93;;;4.00;83.00;;;;;;4896262;29;20482;-43
2021/11/10 02:39:17;;;;;;;10.30;5.73;;;3.90;83.10;;;;;;4899285;29;20509;-43
2021/11/10 02:41:46;;;;;;;8.10;6.10;;;3.90;83.10;;;;;;4898833;29;20505;-43
2021/11/10 02:44:19;;;;;;;6.43;5.60;;;3.90;83.10;;;;;;4898413;29;20472;-43
2021/11/10 02:46:49;;;;;;;8.70;5.80;;;3.90;83.20;;;;;;4897669;29;20976;-43
2021/11/10 02:49:16;;;;;;;9.00;6.03;;;3.90;83.10;;;;;;4899332;29;20470;-44
2021/11/10 02:52:08;;;;;;;8.30;6.40;;;3.90;83.00;;;;;;4894504;29;20529;-44
2021/11/10 02:54:43;;;;;;;6.73;5.63;;;3.90;83.00;;;;;;4909594;29;20977;-44
2021/11/10 02:57:10;;;;;;;5.73;4.80;;;3.90;83.20;;;;;;4895899;29;20500;-44
2021/11/10 02:59:37;;;;;;;8.97;6.30;;;3.90;83.30;;;;;;4880444;29;20481;-44
2021/11/10 03:02:05;;;;;;;9.47;5.90;;;3.90;83.20;;;;;;4880267;29;20465;-43
2021/11/10 03:04:44;;;;;;;6.03;5.10;;;3.90;83.10;;;;;;4880501;29;20505;-43
2021/11/10 03:07:13;;;;;;;10.43;6.60;;;3.80;83.20;;;;;;4896256;29;21100;-43
2021/11/10 03:09:40;;;;;;;8.50;6.20;;;3.80;83.20;;;;;;4899088;29;20977;-43
2021/11/10 03:12:09;;;;;;;6.90;6.13;;;3.80;83.20;;;;;;4897579;29;20961;-43
2021/11/10 03:14:39;;;;;;;9.47;6.80;;;3.80;83.20;;;;;;4879707;29;20953;-43
2021/11/10 03:17:09;;;;;;;7.70;6.90;;;3.70;83.20;;;;;;4896361;29;20981;-43
2021/11/10 03:19:37;;;;;;;12.30;5.80;;;3.70;83.30;;;;;;4894617;29;20492;-43
2021/11/10 03:22:06;;;;;;;8.57;5.87;;;3.70;83.20;;;;;;4896546;29;20573;-43
2021/11/10 03:24:33;;;;;;;10.63;6.93;;;3.70;83.00;;;;;;4882661;29;20465;-43
2021/11/10 03:27:00;;;;;;;10.33;6.23;;;3.70;82.90;;;;;;4876750;29;20462;-43
2021/11/10 03:29:27;;;;;;;7.90;5.90;;;3.60;83.10;;;;;;4887598;29;20465;-43
2021/11/10 03:31:55;;;;;;;9.07;6.00;;;3.60;83.20;;;;;;4896847;29;20474;-43
2021/11/10 03:34:22;;;;;;;9.47;6.40;;;3.60;83.20;;;;;;4898938;29;20497;-44
2021/11/10 03:36:49;;;;;;;7.50;5.53;;;3.60;83.20;;;;;;4898887;29;20504;-44
2021/11/10 03:39:17;;;;;;;8.43;5.80;;;3.60;83.20;;;;;;4896223;29;21211;-44
2021/11/10 03:41:45;;;;;;;6.93;6.07;;;3.60;83.00;;;;;;4897897;29;20989;-44
2021/11/10 03:44:12;;;;;;;7.70;5.33;;;3.50;82.90;;;;;;4898271;29;20973;-44
2021/11/10 03:46:42;;;;;;;7.93;5.83;;;3.50;82.90;;;;;;4899443;29;20824;-44
2021/11/10 03:49:14;;;;;;;9.07;5.67;;;3.50;83.00;;;;;;4890726;29;20469;-44
2021/11/10 03:51:41;;;;;;;10.40;6.30;;;3.50;83.10;;;;;;4897145;29;20497;-43
2021/11/10 03:54:08;;;;;;;7.80;5.97;;;3.50;82.90;;;;;;4901304;29;20468;-44
2021/11/10 03:56:35;;;;;;;7.47;6.13;;;3.50;82.90;;;;;;4898737;29;20497;-42
2021/11/10 03:59:02;;;;;;;11.60;6.10;;;3.50;83.00;;;;;;4889577;29;20453;-42
2021/11/10 04:01:29;;;;;;;7.03;4.97;;;3.50;83.00;;;;;;4871801;29;20462;-42
2021/11/10 04:03:56;;;;;;;9.53;5.30;;;3.40;83.00;;;;;;4888015;29;20458;-42
2021/11/10 04:06:23;;;;;;;8.10;6.13;;;3.50;83.10;;;;;;4888632;29;20465;-42
2021/11/10 04:08:51;;;;;;;9.20;5.60;;;3.50;83.00;;;;;;4887696;29;20465;-42
2021/11/10 04:11:20;;;;;;;8.33;5.10;;;3.50;83.00;;;;;;4888022;29;20465;-42
2021/11/10 04:13:47;;;;;;;9.50;5.83;;;3.40;83.00;;;;;;4888645;29;20458;-42
2021/11/10 04:16:20;;;;;;;8.03;6.90;;;3.40;83.20;;;;;;4889843;29;20469;-42
2021/11/10 04:18:53;;;;;;;7.97;5.60;;;3.40;83.30;;;;;;4888546;29;20552;-42
2021/11/10 04:21:21;;;;;;;6.90;6.20;;;3.40;83.30;;;;;;4889403;29;20450;-42
2021/11/10 04:23:52;;;;;;;13.70;8.77;;;3.40;83.40;;;;;;4889957;29;20537;-42
2021/11/10 04:26:21;;;;;;;8.30;6.50;;;3.40;83.50;;;;;;4892070;29;21297;-42
2021/11/10 04:28:49;;;;;;;9.97;8.10;;;3.40;83.50;;;;;;4892979;29;20458;-42
2021/11/10 04:31:17;;;;;;;8.10;6.87;;;3.30;83.50;;;;;;4890842;29;20454;-42
2021/11/10 04:33:45;;;;;;;9.03;7.03;;;3.30;83.60;;;;;;4892318;29;21041;-41
2021/11/10 04:36:12;;;;;;;8.17;6.40;;;3.40;83.40;;;;;;4891303;29;20454;-41
2021/11/10 04:38:39;;;;;;;7.20;6.03;;;3.30;83.50;;;;;;4876403;29;20556;-41
2021/11/10 04:41:06;;;;;;;9.03;6.70;;;3.40;83.50;;;;;;4891157;29;20449;-41
2021/11/10 04:43:33;;;;;;;7.20;6.07;;;3.40;83.50;;;;;;4891488;29;20488;-40
2021/11/10 04:46:16;;;;;;;7.17;6.13;;;3.40;83.60;;;;;;4891720;29;20480;-41
2021/11/10 04:48:44;;;;;;;10.67;6.33;;;3.40;83.60;;;;;;4890164;29;20464;-41
2021/11/10 04:51:12;;;;;;;10.90;7.07;;;3.30;83.70;;;;;;4888554;29;20465;-41
2021/11/10 04:53:45;;;;;;;8.43;5.73;;;3.40;83.70;;;;;;4889363;29;20461;-42
2021/11/10 04:56:12;;;;;;;7.77;6.10;;;3.30;83.70;;;;;;4889157;29;20875;-42
2021/11/10 04:58:39;;;;;;;15.23;6.67;;;3.30;83.80;;;;;;4889699;29;20459;-41
2021/11/10 05:01:13;;;;;;;11.77;7.10;;;3.30;83.80;;;;;;4891175;29;20462;-42
2021/11/10 05:03:40;;;;;;;10.13;6.87;;;3.30;84.00;;;;;;4891495;29;20461;-41
2021/11/10 05:06:08;;;;;;;10.20;6.50;;;3.30;84.00;;;;;;4891334;29;20977;-41
2021/11/10 05:08:34;;;;;;;8.90;7.17;;;3.30;84.00;;;;;;4891818;29;20988;-41
2021/11/10 05:11:02;;;;;;;9.77;6.37;;;3.30;84.00;;;;;;4890276;29;20486;-41
2021/11/10 05:13:29;;;;;;;8.50;5.40;;;3.30;84.10;;;;;;4874918;29;20480;-42
2021/11/10 05:15:55;;;;;;;7.10;5.70;;;3.30;84.00;;;;;;4905394;29;20468;-41
2021/11/10 05:18:22;;;;;;;8.47;5.97;;;3.40;84.00;;;;;;4891763;29;20501;-41
2021/11/10 05:20:49;;;;;;;9.07;6.90;;;3.40;84.00;;;;;;4890233;29;20454;-42
2021/11/10 05:23:16;;;;;;;6.83;6.13;;;3.40;84.00;;;;;;4891817;29;20477;-42
2021/11/10 05:25:43;;;;;;;8.10;5.67;;;3.40;83.90;;;;;;4890859;29;20483;-42
2021/11/10 05:28:10;;;;;;;9.10;5.60;;;3.30;84.00;;;;;;4890391;29;20458;-42
2021/11/10 05:30:37;;;;;;;8.00;5.60;;;3.40;84.00;;;;;;4877516;29;20466;-42
2021/11/10 05:33:04;;;;;;;6.20;5.50;;;3.40;83.80;;;;;;4892055;29;20973;-42
2021/11/10 05:35:32;;;;;;;10.70;7.50;;;3.40;83.80;;;;;;4874318;29;20958;-42
2021/11/10 05:38:00;;;;;;;6.70;5.80;;;3.40;83.80;;;;;;4891644;29;21104;-42
2021/11/10 05:40:27;;;;;;;8.17;6.57;;;3.30;83.80;;;;;;4870415;29;20465;-42
2021/11/10 05:42:53;;;;;;;14.80;6.67;;;3.30;83.90;;;;;;4891076;29;20804;-42
2021/11/10 05:45:20;;;;;;;9.83;6.37;;;3.30;83.80;;;;;;4890614;29;20472;-42
2021/11/10 05:47:47;;;;;;;6.27;5.50;;;3.30;83.90;;;;;;4882589;29;20473;-42
2021/11/10 05:50:14;;;;;;;7.60;5.10;;;3.30;83.80;;;;;;4889763;29;20468;-42
2021/11/10 05:52:42;;;;;;;8.00;6.67;;;3.30;83.80;;;;;;4887953;29;20473;-42
2021/11/10 05:55:10;;;;;;;11.13;6.33;;;3.30;84.00;;;;;;4874229;29;20847;-42
2021/11/10 05:57:39;;;;;;;7.50;6.80;;;3.30;84.00;;;;;;4890783;29;20500;-42
2021/11/10 06:00:10;;;;;;;8.03;7.23;;;3.30;83.90;;;;;;4878893;29;20462;-42
2021/11/10 06:02:38;;;;;;;8.63;6.30;;;3.30;84.00;;;;;;4876156;29;20461;-42
2021/11/10 06:05:05;;;;;;;6.90;6.03;;;3.30;83.80;;;;;;4889161;29;20502;-42
2021/11/10 06:07:32;;;;;;;6.10;5.50;;;3.30;83.90;;;;;;4891643;29;20560;-41
2021/11/10 06:09:58;;;;;;;10.73;6.47;;;3.30;84.00;;;;;;4873378;29;20454;-41
2021/11/10 06:12:25;;;;;;;7.57;6.50;;;3.30;84.00;;;;;;4888889;29;20987;-41
2021/11/10 06:14:52;;;;;;;9.00;5.90;;;3.30;84.00;;;;;;4888878;29;20473;-41
2021/11/10 06:17:19;;;;;;;9.50;7.10;;;3.30;83.90;;;;;;4888506;29;20520;-41
2021/11/10 06:19:45;;;;;;;6.80;5.90;;;3.20;84.00;;;;;;4886581;29;20856;-41
2021/11/10 06:22:12;;;;;;;6.83;5.70;;;3.20;84.10;;;;;;4886149;29;20472;-41
2021/11/10 06:24:39;;;;;;;101.63;50.80;;;3.20;84.30;;;;;;4880123;29;20484;-42
2021/11/10 06:27:06;;;;;;;103.80;55.70;;;3.20;84.30;;;;;;4870809;29;20973;-42
2021/11/10 06:29:33;;;;;;;32.40;18.30;;;3.20;84.40;;;;;;4888303;29;20513;-42
2021/11/10 06:32:01;;;;;;;36.47;19.37;;;3.20;84.30;;;;;;4870689;29;20477;-42
2021/11/10 06:34:29;;;;;;;22.40;12.30;;;3.20;84.20;;;;;;4886015;29;20484;-42
2021/11/10 06:36:56;;;;;;;15.53;11.03;;;3.10;84.20;;;;;;4870191;29;20977;-42
2021/11/10 06:39:22;;;;;;;13.10;8.50;;;3.20;84.20;;;;;;4871154;29;20484;-42
2021/11/10 06:41:49;;;;;;;11.47;8.67;;;3.10;84.10;;;;;;4889132;29;20961;-41
2021/11/10 06:44:16;;;;;;;11.37;7.70;;;3.10;84.00;;;;;;4885308;29;20480;-42
2021/11/10 06:46:43;;;;;;;9.23;7.30;;;3.10;84.00;;;;;;4886798;29;20465;-41
2021/11/10 06:49:09;;;;;;;11.93;7.07;;;3.10;84.00;;;;;;4886157;29;20476;-41
2021/11/10 06:51:36;;;;;;;11.57;6.83;;;3.10;83.90;;;;;;4888790;29;20809;-41
2021/11/10 06:54:03;;;;;;;13.17;7.70;;;3.10;83.90;;;;;;4870748;29;20477;-42
2021/11/10 06:56:30;;;;;;;8.60;6.20;;;3.10;84.00;;;;;;4874710;29;20497;-41
2021/11/10 06:58:57;;;;;;;9.27;7.67;;;3.10;83.90;;;;;;4872772;29;20498;-42
2021/11/10 07:01:25;;;;;;;9.97;7.83;;;3.10;84.00;;;;;;4889152;29;20465;-42
2021/11/10 07:03:53;;;;;;;7.07;6.30;;;3.10;83.80;;;;;;4887288;29;21048;-42
2021/11/10 07:06:19;;;;;;;8.70;6.80;;;3.10;84.00;;;;;;4870161;29;20858;-42
2021/11/10 07:08:46;;;;;;;8.63;7.00;;;3.10;84.10;;;;;;4887188;29;20492;-42
2021/11/10 07:11:13;;;;;;;9.93;7.10;;;3.10;84.20;;;;;;4884497;29;20525;-41
2021/11/10 07:13:40;;;;;;;7.10;6.30;;;3.10;84.20;;;;;;4885494;29;20851;-42
2021/11/10 07:16:06;;;;;;;9.97;8.83;;;3.10;84.30;;;;;;4883203;29;21009;-42
2021/11/10 07:18:33;;;;;;;9.37;7.40;;;3.20;84.40;;;;;;4886807;29;20491;-42
2021/11/10 07:21:00;;;;;;;14.00;10.10;;;3.20;84.40;;;;;;4886470;29;20470;-42
2021/11/10 07:23:27;;;;;;;13.80;8.57;;;3.20;84.50;;;;;;4874207;29;20473;-42
2021/11/10 07:25:54;;;;;;;11.13;8.10;;;3.20;84.50;;;;;;4885262;29;20469;-42
2021/11/10 07:28:20;;;;;;;11.70;9.40;;;3.30;84.50;;;;;;4884066;29;20470;-42
2021/11/10 07:30:47;;;;;;;12.27;9.17;;;3.30;84.60;;;;;;4867332;29;20471;-42
2021/11/10 07:33:14;;;;;;;9.77;7.27;;;3.30;84.60;;;;;;4883229;29;20473;-42
2021/11/10 07:35:41;;;;;;;8.60;6.63;;;3.40;84.60;;;;;;4883788;29;20477;-42
2021/11/10 07:38:11;;;;;;;11.53;7.43;;;3.40;84.50;;;;;;4886653;29;20490;-43
2021/11/10 07:40:38;;;;;;;11.67;8.10;;;3.40;84.70;;;;;;4889294;29;20460;-42
2021/11/10 07:43:04;;;;;;;11.53;7.53;;;3.50;84.70;;;;;;4888980;29;20464;-42
2021/11/10 07:45:34;;;;;;;12.03;8.00;;;3.50;84.80;;;;;;4888130;29;20461;-42
2021/11/10 07:48:04;;;;;;;8.17;6.90;;;3.60;84.90;;;;;;4887384;29;20468;-42
2021/11/10 07:50:32;;;;;;;12.60;7.63;;;3.60;84.90;;;;;;4867447;29;20476;-42
2021/11/10 07:52:59;;;;;;;10.53;8.00;;;3.60;85.00;;;;;;4889751;29;20856;-42
2021/11/10 07:55:26;;;;;;;11.60;8.10;;;3.70;85.20;;;;;;4886835;29;20885;-41
2021/11/10 07:57:55;;;;;;;16.73;9.40;;;3.70;85.20;;;;;;4885875;29;20496;-41
2021/11/10 08:00:40;;;;;;;10.70;7.00;;;3.80;85.20;;;;;;4890300;29;20476;-43
2021/11/10 08:03:07;;;;;;;11.77;7.30;;;3.80;85.40;;;;;;4888013;29;20493;-42
2021/11/10 08:05:34;;;;;;;9.80;8.50;;;3.80;85.50;;;;;;4887883;29;20537;-42
2021/11/10 08:08:01;;;;;;;9.03;6.53;;;3.90;85.50;;;;;;4871469;29;20465;-43
2021/11/10 08:10:49;;;;;;;9.07;6.63;;;3.90;85.70;;;;;;4880272;29;20461;-42
2021/11/10 08:13:16;;;;;;;12.63;6.90;;;3.90;85.90;;;;;;4888130;29;20466;-41
2021/11/10 08:15:42;;;;;;;13.97;7.30;;;4.00;86.10;;;;;;4890488;29;20953;-42
2021/11/10 08:18:09;;;;;;;15.00;7.83;;;4.10;86.30;;;;;;4891890;29;20857;-42
2021/11/10 08:20:36;;;;;;;14.67;8.50;;;4.10;86.20;;;;;;4891510;29;20833;-42
2021/11/10 08:23:03;;;;;;;12.97;8.63;;;4.20;86.40;;;;;;4890928;29;20470;-42
2021/11/10 08:25:30;;;;;;;14.87;7.67;;;4.20;86.60;;;;;;4889489;29;20583;-43
2021/11/10 08:27:57;;;;;;;15.53;9.07;;;4.30;86.60;;;;;;4892131;29;21032;-42
2021/11/10 08:30:24;;;;;;;10.63;7.73;;;4.30;86.80;;;;;;4891640;29;20490;-42
2021/11/10 08:32:52;;;;;;;10.17;7.87;;;4.40;86.90;;;;;;4889479;29;20509;-43
2021/11/10 08:35:20;;;;;;;12.17;8.07;;;4.50;87.00;;;;;;4889308;29;20520;-43
2021/11/10 08:37:52;;;;;;;8.37;7.20;;;4.50;86.90;;;;;;4869881;29;20493;-42
2021/11/10 08:40:20;;;;;;;13.13;9.53;;;4.60;87.00;;;;;;4892020;29;20703;-43
2021/11/10 08:42:47;;;;;;;16.20;10.37;;;4.70;87.20;;;;;;4891669;29;20540;-43
2021/11/10 08:45:18;;;;;;;13.27;8.77;;;4.70;87.20;;;;;;4889782;29;20469;-42
2021/11/10 08:47:50;;;;;;;9.70;8.73;;;4.80;87.30;;;;;;4885511;29;20808;-42
2021/11/10 08:50:20;;;;;;;11.13;8.13;;;5.00;87.40;;;;;;4884154;29;20462;-43
2021/11/10 08:52:47;;;;;;;13.63;10.47;;;5.10;86.60;;;;;;4859699;29;20999;-43
2021/11/10 08:55:17;;;;;;;11.93;8.90;;;5.20;86.50;;;;;;4891694;29;20874;-42
2021/11/10 08:57:45;;;;;;;10.90;9.67;;;5.20;86.90;;;;;;4890407;29;20505;-42
2021/11/10 09:00:15;;;;;;;11.00;8.23;;;5.40;87.10;;;;;;4887705;29;20961;-42
2021/11/10 09:02:43;;;;;;;13.13;9.00;;;5.40;87.00;;;;;;4889471;29;20553;-42
2021/11/10 09:05:11;;;;;;;10.93;7.60;;;5.50;86.80;;;;;;4875271;29;20513;-42
2021/11/10 09:07:38;;;;;;;9.30;7.57;;;5.60;86.70;;;;;;4886456;29;20481;-42
2021/11/10 09:10:06;;;;;;;10.90;9.57;;;5.60;86.50;;;;;;4891538;29;20457;-42
2021/11/10 09:12:33;;;;;;;12.23;9.40;;;5.70;86.20;;;;;;4890073;29;20949;-42
2021/11/10 09:15:01;;;;;;;10.03;8.17;;;5.80;85.80;;;;;;4890238;29;20504;-42
2021/11/10 09:17:34;;;;;;;10.27;7.60;;;5.90;85.70;;;;;;4890177;29;20465;-42
2021/11/10 09:20:07;;;;;;;11.63;9.17;;;6.00;85.50;;;;;;4872603;29;20468;-42
2021/11/10 09:22:36;;;;;;;12.87;8.47;;;6.10;85.40;;;;;;4890882;29;20477;-42
2021/11/10 09:25:03;;;;;;;13.43;8.43;;;6.20;85.20;;;;;;4889767;29;20853;-42
2021/11/10 09:27:29;;;;;;;10.77;8.13;;;6.30;83.90;;;;;;4889463;29;20474;-42
2021/11/10 09:29:56;;;;;;;9.50;7.60;;;6.40;83.20;;;;;;4875066;29;20819;-41
2021/11/10 09:32:26;;;;;;;13.23;9.17;;;6.50;83.30;;;;;;4890493;29;20474;-42
2021/11/10 09:34:53;;;;;;;15.37;10.20;;;6.60;83.20;;;;;;4889641;29;20470;-42
2021/11/10 09:37:20;;;;;;;11.10;9.03;;;6.60;82.90;;;;;;4890605;29;20466;-41
2021/11/10 09:39:47;;;;;;;10.97;8.63;;;6.70;82.30;;;;;;4887208;29;20913;-42
2021/11/10 09:42:14;;;;;;;10.93;7.87;;;6.80;81.50;;;;;;4890226;29;21035;-41
2021/11/10 09:44:42;;;;;;;9.70;7.70;;;6.90;81.30;;;;;;4891571;29;20454;-42
2021/11/10 09:47:09;;;;;;;9.80;7.90;;;6.90;80.00;;;;;;4889111;29;20468;-42
2021/11/10 09:49:36;;;;;;;12.43;10.10;;;7.00;79.20;;;;;;4889078;29;20860;-42
2021/11/10 09:52:03;;;;;;;15.17;9.90;;;7.10;79.30;;;;;;4871652;29;20469;-42
2021/11/10 09:54:30;;;;;;;10.40;8.83;;;7.20;79.00;;;;;;4876853;29;20470;-42
2021/11/10 09:56:57;;;;;;;13.40;8.37;;;7.30;79.40;;;;;;4889548;29;20517;-42
2021/11/10 09:59:25;;;;;;;10.47;8.87;;;7.40;79.00;;;;;;4888198;29;20496;-41
2021/11/10 10:01:51;;;;;;;12.20;8.50;;;7.50;79.00;;;;;;4891142;29;20462;-41
2021/11/10 10:04:21;;;;;;;17.93;8.80;;;7.50;79.10;;;;;;4891444;29;20453;-41
2021/11/10 10:06:48;;;;;;;12.43;9.40;;;7.60;79.20;;;;;;4888832;29;20838;-42
2021/11/10 10:09:15;;;;;;;10.53;8.77;;;7.70;79.20;;;;;;4891805;29;20518;-41
2021/11/10 10:11:41;;;;;;;13.13;9.30;;;7.80;79.10;;;;;;4888738;29;20480;-41
2021/11/10 10:14:08;;;;;;;12.83;9.17;;;7.90;78.90;;;;;;4887855;29;20578;-42
2021/11/10 10:16:36;;;;;;;11.53;8.87;;;8.00;78.20;;;;;;4886041;29;21140;-42
2021/11/10 10:19:12;;;;;;;12.57;9.80;;;8.00;77.90;;;;;;4890532;29;20501;-42
2021/11/10 10:21:42;;;;;;;14.67;9.37;;;8.00;77.20;;;;;;4887264;29;20513;-42
2021/11/10 10:24:12;;;;;;;13.00;8.60;;;8.00;77.10;;;;;;4888801;29;20470;-42
2021/11/10 10:26:40;;;;;;;19.03;9.70;;;8.00;77.00;;;;;;4889025;29;20472;-42
2021/11/10 10:29:09;;;;;;;15.67;9.70;;;8.00;77.20;;;;;;4889664;29;21009;-42
2021/11/10 10:31:41;;;;;;;11.20;9.23;;;8.10;77.40;;;;;;4874220;29;20462;-42
2021/11/10 10:34:15;;;;;;;14.33;10.63;;;8.10;77.40;;;;;;4888868;29;20462;-42
2021/11/10 10:36:46;;;;;;;12.20;9.30;;;8.10;77.50;;;;;;4888654;29;21057;-42
2021/11/10 10:39:18;;;;;;;12.57;9.43;;;8.10;76.90;;;;;;4890803;29;20492;-41
2021/11/10 10:41:48;;;;;;;13.07;9.80;;;8.20;77.00;;;;;;4890391;29;20509;-42
2021/11/10 10:44:18;;;;;;;14.70;10.00;;;8.20;76.90;;;;;;4875451;29;20481;-42
2021/11/10 10:46:47;;;;;;;15.10;9.80;;;8.20;77.00;;;;;;4890167;29;20461;-41
2021/11/10 10:49:20;;;;;;;17.87;10.63;;;8.20;77.10;;;;;;4886917;29;20465;-42
2021/11/10 10:51:53;;;;;;;10.43;9.37;;;8.20;77.10;;;;;;4888035;29;21004;-42
2021/11/10 10:54:28;;;;;;;9.77;8.57;;;8.30;77.20;;;;;;4888538;29;20464;-41
2021/11/10 10:57:00;;;;;;;11.63;10.13;;;8.20;77.40;;;;;;4887084;29;20485;-42
2021/11/10 10:59:28;;;;;;;11.80;9.73;;;8.20;77.60;;;;;;4862837;29;20505;-42
2021/11/10 11:02:04;;;;;;;11.97;10.03;;;8.20;77.80;;;;;;4885581;29;20462;-42
2021/11/10 11:04:33;;;;;;;16.30;9.67;;;8.20;78.00;;;;;;4889125;29;20992;-41
2021/11/10 11:07:02;;;;;;;14.87;10.03;;;8.30;77.00;;;;;;4870964;29;20480;-42
2021/11/10 11:09:44;;;;;;;17.30;10.17;;;8.30;76.80;;;;;;4886294;29;20615;-41
2021/11/10 11:12:22;;;;;;;13.20;9.73;;;8.20;77.20;;;;;;4883228;29;20834;-42
2021/11/10 11:15:13;;;;;;;13.47;10.20;;;8.20;77.20;;;;;;4882807;29;20478;-42
2021/11/10 11:17:42;;;;;;;15.20;10.27;;;8.20;77.30;;;;;;4886914;29;20476;-42
2021/11/10 11:20:18;;;;;;;10.50;9.40;;;8.20;77.00;;;;;;4887917;29;21011;-42
2021/11/10 11:22:45;;;;;;;11.87;9.00;;;8.20;77.10;;;;;;4879625;29;20473;-42
2021/11/10 11:25:16;;;;;;;16.93;10.03;;;8.20;76.80;;;;;;4887607;29;20450;-42
2021/11/10 11:28:00;;;;;;;14.10;10.03;;;8.20;76.90;;;;;;4871701;29;21239;-42
2021/11/10 11:30:32;;;;;;;10.70;9.60;;;8.20;76.70;;;;;;4887248;29;21023;-42
2021/11/10 11:33:02;;;;;;;13.80;10.37;;;8.20;76.80;;;;;;4889147;29;20474;-42
2021/11/10 11:35:40;;;;;;;14.10;10.40;;;8.30;76.80;;;;;;4888652;29;20468;-42
2021/11/10 11:38:25;;;;;;;13.67;10.40;;;8.30;76.70;;;;;;4860956;29;20491;-42
2021/11/10 11:40:55;;;;;;;11.07;9.93;;;8.40;76.00;;;;;;4884789;29;20466;-41
2021/11/10 11:43:24;;;;;;;12.20;9.17;;;8.30;76.00;;;;;;4884940;29;21088;-42
2021/11/10 11:45:53;;;;;;;14.10;10.50;;;8.30;76.30;;;;;;4888640;29;20472;-43
2021/11/10 11:48:24;;;;;;;15.90;9.40;;;8.30;76.70;;;;;;4892464;29;20849;-42
2021/11/10 11:50:53;;;;;;;11.63;10.37;;;8.30;76.90;;;;;;4892615;29;20458;-42
2021/11/10 11:53:20;;;;;;;13.37;10.60;;;8.30;76.90;;;;;;4875983;29;21044;-42
2021/11/10 11:55:58;;;;;;;13.73;9.87;;;8.30;76.50;;;;;;4892323;29;20474;-43
2021/11/10 11:58:34;;;;;;;14.63;9.93;;;8.40;76.50;;;;;;4892156;29;20454;-42
2021/11/10 12:01:07;;;;;;;11.87;9.80;;;8.40;76.40;;;;;;4887129;29;21017;-42
2021/11/10 12:03:37;;;;;;;14.40;10.30;;;8.50;76.10;;;;;;4891014;29;20495;-42
2021/11/10 12:06:04;;;;;;;13.10;10.53;;;8.50;76.10;;;;;;4891676;29;20457;-42
2021/11/10 12:08:46;;;;;;;14.10;10.80;;;8.50;75.90;;;;;;4871833;29;20465;-42
2021/11/10 12:11:39;;;;;;;12.77;9.73;;;8.50;75.70;;;;;;4889610;29;20475;-42
2021/11/10 12:14:17;;;;;;;15.63;9.50;;;8.60;75.70;;;;;;4874028;29;20463;-42
2021/11/10 12:16:50;;;;;;;13.30;10.20;;;8.70;75.80;;;;;;4893139;29;21009;-41
2021/11/10 12:19:24;;;;;;;12.57;9.87;;;8.70;75.50;;;;;;4876068;29;21032;-42
2021/11/10 12:22:04;;;;;;;13.20;10.57;;;8.70;75.50;;;;;;4882654;29;20476;-42
2021/11/10 12:24:51;;;;;;;12.70;10.70;;;8.60;75.60;;;;;;4872522;29;20992;-42
2021/11/10 12:27:25;;;;;;;12.67;9.60;;;8.60;75.80;;;;;;4889519;29;20517;-42
2021/11/10 12:29:59;;;;;;;12.63;10.20;;;8.70;76.40;;;;;;4890055;29;20476;-42
2021/11/10 12:32:28;;;;;;;14.20;10.10;;;8.70;76.40;;;;;;4890290;29;20472;-42
2021/11/10 12:35:24;;;;;;;10.47;9.30;;;8.70;76.60;;;;;;4890286;29;20446;-42
2021/11/10 12:37:54;;;;;;;17.53;11.20;;;8.70;76.70;;;;;;4873171;29;20465;-42
2021/11/10 12:40:35;;;;;;;19.33;11.07;;;8.80;76.70;;;;;;4891984;29;21028;-42
2021/11/10 12:43:02;;;;;;;13.97;9.97;;;8.80;76.80;;;;;;4892421;29;20517;-42
2021/11/10 12:45:35;;;;;;;20.63;13.20;;;8.80;77.10;;;;;;4891165;29;20462;-42
2021/11/10 12:48:05;;;;;;;15.83;11.10;;;8.80;77.00;;;;;;4891377;29;20945;-42
2021/11/10 12:50:43;;;;;;;12.90;10.40;;;8.80;77.00;;;;;;4892079;29;20461;-42
2021/11/10 12:53:16;;;;;;;14.97;10.70;;;8.90;77.40;;;;;;4888949;29;20485;-42
2021/11/10 12:55:53;;;;;;;14.83;10.87;;;9.00;77.10;;;;;;4889339;29;21013;-42
2021/11/10 12:58:24;;;;;;;13.80;10.60;;;9.00;76.90;;;;;;4868894;29;21040;-42
2021/11/10 13:00:57;;;;;;;14.83;10.83;;;9.00;77.00;;;;;;4876061;29;20470;-42